sensor_id;sensor_type;location;lat;lon;timestamp;pressure;altitude;pressure_sealevel;temperature;humidity
11523;BME280;70090;43.208;27.904;2023-08-20T00:01:25;100902.22;;;25.12;99.44
11523;BME280;70090;43.208;27.904;2023-08-20T00:03:53;100905.81;;;25.03;100.00
11523;BME280;70090;43.208;27.904;2023-08-20T00:06:20;100912.16;;;24.95;100.00
11523;BME280;70090;43.208;27.904;2023-08-20T00:08:49;100906.19;;;24.84;100.00
11523;BME280;70090;43.208;27.904;2023-08-20T00:11:16;100906.88;;;24.66;100.00
11523;BME280;70090;43.208;27.904;2023-08-20T00:13:44;100912.81;;;24.59;100.00
11523;BME280;70090;43.208;27.904;2023-08-20T00:16:11;100918.28;;;24.63;100.00
11523;BME280;70090;43.208;27.904;2023-08-20T00:18:39;100916.75;;;24.19;100.00
11523;BME280;70090;43.208;27.904;2023-08-20T00:21:07;100909.94;;;23.86;100.00
11523;BME280;70090;43.208;27.904;2023-08-20T00:23:35;100911.91;;;23.98;100.00
11523;BME280;70090;43.208;27.904;2023-08-20T00:26:04;100908.00;;;23.95;100.00
11523;BME280;70090;43.208;27.904;2023-08-20T00:28:31;100908.66;;;23.99;100.00
11523;BME280;70090;43.208;27.904;2023-08-20T00:30:59;100904.06;;;23.93;100.00
11523;BME280;70090;43.208;27.904;2023-08-20T00:33:26;100910.41;;;23.72;100.00
11523;BME280;70090;43.208;27.904;2023-08-20T00:35:53;100918.53;;;23.70;100.00
11523;BME280;70090;43.208;27.904;2023-08-20T00:38:20;100916.16;;;23.68;100.00
11523;BME280;70090;43.208;27.904;2023-08-20T00:40:47;100902.66;;;23.42;100.00
11523;BME280;70090;43.208;27.904;2023-08-20T00:43:15;100918.78;;;23.50;100.00
11523;BME280;70090;43.208;27.904;2023-08-20T00:45:42;100915.88;;;23.54;100.00
11523;BME280;70090;43.208;27.904;2023-08-20T00:48:09;100910.56;;;23.56;100.00
11523;BME280;70090;43.208;27.904;2023-08-20T00:50:37;100902.03;;;23.59;100.00
11523;BME280;70090;43.208;27.904;2023-08-20T00:53:06;100900.00;;;23.60;100.00
11523;BME280;70090;43.208;27.904;2023-08-20T00:55:33;100902.81;;;23.60;100.00
11523;BME280;70090;43.208;27.904;2023-08-20T00:58:00;100906.88;;;23.59;100.00
11523;BME280;70090;43.208;27.904;2023-08-20T01:00:28;100913.06;;;23.54;100.00
11523;BME280;70090;43.208;27.904;2023-08-20T01:02:55;100912.63;;;23.43;100.00
11523;BME280;70090;43.208;27.904;2023-08-20T01:05:22;100916.38;;;23.40;100.00
11523;BME280;70090;43.208;27.904;2023-08-20T01:07:58;100919.88;;;23.31;100.00
11523;BME280;70090;43.208;27.904;2023-08-20T01:10:33;100920.75;;;23.28;100.00
11523;BME280;70090;43.208;27.904;2023-08-20T01:13:02;100920.75;;;23.41;100.00
11523;BME280;70090;43.208;27.904;2023-08-20T01:15:31;100913.88;;;23.42;100.00
11523;BME280;70090;43.208;27.904;2023-08-20T01:17:58;100906.03;;;23.37;100.00
11523;BME280;70090;43.208;27.904;2023-08-20T01:20:29;100910.75;;;23.40;100.00
11523;BME280;70090;43.208;27.904;2023-08-20T01:23:19;100908.50;;;23.35;100.00
11523;BME280;70090;43.208;27.904;2023-08-20T01:26:08;100901.56;;;23.27;100.00
11523;BME280;70090;43.208;27.904;2023-08-20T01:28:43;100907.72;;;23.34;100.00
11523;BME280;70090;43.208;27.904;2023-08-20T01:31:10;100894.13;;;23.33;100.00
11523;BME280;70090;43.208;27.904;2023-08-20T01:33:39;100908.41;;;23.26;100.00
11523;BME280;70090;43.208;27.904;2023-08-20T01:36:08;100904.28;;;23.18;100.00
11523;BME280;70090;43.208;27.904;2023-08-20T01:38:36;100916.16;;;23.22;100.00
11523;BME280;70090;43.208;27.904;2023-08-20T01:41:03;100909.22;;;23.14;100.00
11523;BME280;70090;43.208;27.904;2023-08-20T01:43:30;100916.63;;;23.08;100.00
11523;BME280;70090;43.208;27.904;2023-08-20T01:45:58;100911.75;;;23.08;100.00
11523;BME280;70090;43.208;27.904;2023-08-20T01:48:25;100917.75;;;22.98;100.00
11523;BME280;70090;43.208;27.904;2023-08-20T01:50:52;100908.63;;;23.06;100.00
11523;BME280;70090;43.208;27.904;2023-08-20T01:53:19;100914.13;;;23.10;100.00
11523;BME280;70090;43.208;27.904;2023-08-20T01:55:46;100907.16;;;23.02;100.00
11523;BME280;70090;43.208;27.904;2023-08-20T01:58:12;100904.94;;;22.97;100.00
11523;BME280;70090;43.208;27.904;2023-08-20T02:00:40;100905.97;;;22.91;100.00
11523;BME280;70090;43.208;27.904;2023-08-20T02:03:08;100902.72;;;22.80;100.00
11523;BME280;70090;43.208;27.904;2023-08-20T02:05:35;100912.81;;;22.77;100.00
11523;BME280;70090;43.208;27.904;2023-08-20T02:08:04;100901.47;;;22.68;100.00
11523;BME280;70090;43.208;27.904;2023-08-20T02:10:30;100894.81;;;22.62;100.00
11523;BME280;70090;43.208;27.904;2023-08-20T02:12:57;100897.97;;;22.77;100.00
11523;BME280;70090;43.208;27.904;2023-08-20T02:15:24;100905.28;;;22.74;100.00
11523;BME280;70090;43.208;27.904;2023-08-20T02:17:51;100899.69;;;22.74;100.00
11523;BME280;70090;43.208;27.904;2023-08-20T02:20:19;100903.38;;;22.71;100.00
11523;BME280;70090;43.208;27.904;2023-08-20T02:22:46;100903.13;;;22.66;100.00
11523;BME280;70090;43.208;27.904;2023-08-20T02:25:13;100902.03;;;22.63;100.00
11523;BME280;70090;43.208;27.904;2023-08-20T02:27:40;100897.28;;;22.60;100.00
11523;BME280;70090;43.208;27.904;2023-08-20T02:30:08;100915.38;;;22.72;100.00
11523;BME280;70090;43.208;27.904;2023-08-20T02:32:34;100906.28;;;22.80;100.00
11523;BME280;70090;43.208;27.904;2023-08-20T02:35:02;100907.84;;;22.81;100.00
11523;BME280;70090;43.208;27.904;2023-08-20T02:37:32;100919.09;;;22.69;100.00
11523;BME280;70090;43.208;27.904;2023-08-20T02:39:59;100914.13;;;22.60;100.00
11523;BME280;70090;43.208;27.904;2023-08-20T02:42:26;100922.88;;;22.62;100.00
11523;BME280;70090;43.208;27.904;2023-08-20T02:44:52;100917.72;;;22.61;100.00
11523;BME280;70090;43.208;27.904;2023-08-20T02:47:19;100914.38;;;22.53;100.00
11523;BME280;70090;43.208;27.904;2023-08-20T02:49:46;100924.13;;;22.49;100.00
11523;BME280;70090;43.208;27.904;2023-08-20T02:52:13;100927.47;;;22.44;100.00
11523;BME280;70090;43.208;27.904;2023-08-20T02:54:41;100920.34;;;22.39;100.00
11523;BME280;70090;43.208;27.904;2023-08-20T02:57:08;100920.78;;;22.25;100.00
11523;BME280;70090;43.208;27.904;2023-08-20T02:59:34;100919.97;;;22.25;100.00
11523;BME280;70090;43.208;27.904;2023-08-20T03:02:01;100926.38;;;22.25;100.00
11523;BME280;70090;43.208;27.904;2023-08-20T03:04:29;100929.75;;;22.20;100.00
11523;BME280;70090;43.208;27.904;2023-08-20T03:06:55;100929.50;;;22.15;100.00
11523;BME280;70090;43.208;27.904;2023-08-20T03:09:22;100932.41;;;22.11;100.00
11523;BME280;70090;43.208;27.904;2023-08-20T03:11:50;100927.66;;;22.08;100.00
11523;BME280;70090;43.208;27.904;2023-08-20T03:14:17;100922.28;;;22.01;100.00
11523;BME280;70090;43.208;27.904;2023-08-20T03:16:44;100925.94;;;21.98;100.00
11523;BME280;70090;43.208;27.904;2023-08-20T03:19:11;100920.47;;;21.95;100.00
11523;BME280;70090;43.208;27.904;2023-08-20T03:21:38;100924.94;;;21.92;100.00
11523;BME280;70090;43.208;27.904;2023-08-20T03:24:06;100918.28;;;21.86;100.00
11523;BME280;70090;43.208;27.904;2023-08-20T03:26:33;100915.16;;;21.84;100.00
11523;BME280;70090;43.208;27.904;2023-08-20T03:29:01;100913.22;;;21.81;100.00
11523;BME280;70090;43.208;27.904;2023-08-20T03:31:28;100917.28;;;21.80;100.00
11523;BME280;70090;43.208;27.904;2023-08-20T03:33:55;100919.38;;;21.76;100.00
11523;BME280;70090;43.208;27.904;2023-08-20T03:36:22;100921.63;;;21.81;100.00
11523;BME280;70090;43.208;27.904;2023-08-20T03:38:49;100920.22;;;21.89;100.00
11523;BME280;70090;43.208;27.904;2023-08-20T03:41:15;100913.16;;;21.97;100.00
11523;BME280;70090;43.208;27.904;2023-08-20T03:43:42;100920.72;;;22.00;100.00
11523;BME280;70090;43.208;27.904;2023-08-20T03:46:11;100920.72;;;22.00;100.00
11523;BME280;70090;43.208;27.904;2023-08-20T03:48:37;100913.53;;;21.99;100.00
11523;BME280;70090;43.208;27.904;2023-08-20T03:51:04;100921.16;;;21.99;100.00
11523;BME280;70090;43.208;27.904;2023-08-20T03:53:31;100916.69;;;22.01;100.00
11523;BME280;70090;43.208;27.904;2023-08-20T03:55:58;100920.81;;;21.97;100.00
11523;BME280;70090;43.208;27.904;2023-08-20T03:58:25;100916.09;;;21.94;100.00
11523;BME280;70090;43.208;27.904;2023-08-20T04:00:52;100919.34;;;21.92;100.00
11523;BME280;70090;43.208;27.904;2023-08-20T04:03:20;100924.53;;;22.06;100.00
11523;BME280;70090;43.208;27.904;2023-08-20T04:05:49;100919.41;;;22.17;100.00
11523;BME280;70090;43.208;27.904;2023-08-20T04:08:17;100925.00;;;22.17;100.00
11523;BME280;70090;43.208;27.904;2023-08-20T04:10:43;100924.34;;;22.13;100.00
11523;BME280;70090;43.208;27.904;2023-08-20T04:13:11;100933.41;;;22.17;100.00
11523;BME280;70090;43.208;27.904;2023-08-20T04:15:39;100922.34;;;22.26;100.00
11523;BME280;70090;43.208;27.904;2023-08-20T04:18:06;100922.91;;;22.34;100.00
11523;BME280;70090;43.208;27.904;2023-08-20T04:20:34;100923.03;;;22.30;100.00
11523;BME280;70090;43.208;27.904;2023-08-20T04:23:01;100928.25;;;22.44;100.00
11523;BME280;70090;43.208;27.904;2023-08-20T04:25:28;100909.28;;;22.48;100.00
11523;BME280;70090;43.208;27.904;2023-08-20T04:27:55;100914.13;;;22.60;100.00
11523;BME280;70090;43.208;27.904;2023-08-20T04:30:22;100918.88;;;22.63;100.00
11523;BME280;70090;43.208;27.904;2023-08-20T04:32:48;100919.53;;;22.67;100.00
11523;BME280;70090;43.208;27.904;2023-08-20T04:35:15;100917.97;;;22.66;100.00
11523;BME280;70090;43.208;27.904;2023-08-20T04:37:44;100922.91;;;22.75;100.00
11523;BME280;70090;43.208;27.904;2023-08-20T04:40:11;100921.44;;;22.83;100.00
11523;BME280;70090;43.208;27.904;2023-08-20T04:42:38;100924.38;;;22.92;100.00
11523;BME280;70090;43.208;27.904;2023-08-20T04:45:06;100920.66;;;23.07;100.00
11523;BME280;70090;43.208;27.904;2023-08-20T04:47:33;100918.75;;;23.16;100.00
11523;BME280;70090;43.208;27.904;2023-08-20T04:50:00;100921.41;;;23.45;100.00
11523;BME280;70090;43.208;27.904;2023-08-20T04:52:27;100933.38;;;23.58;100.00
11523;BME280;70090;43.208;27.904;2023-08-20T04:54:55;100937.84;;;23.68;100.00
11523;BME280;70090;43.208;27.904;2023-08-20T04:57:22;100932.44;;;23.86;100.00
11523;BME280;70090;43.208;27.904;2023-08-20T04:59:49;100929.16;;;24.09;100.00
11523;BME280;70090;43.208;27.904;2023-08-20T05:02:16;100912.81;;;24.38;100.00
11523;BME280;70090;43.208;27.904;2023-08-20T05:04:43;100927.66;;;24.60;100.00
11523;BME280;70090;43.208;27.904;2023-08-20T05:07:09;100921.19;;;24.81;100.00
11523;BME280;70090;43.208;27.904;2023-08-20T05:09:36;100922.78;;;24.91;100.00
11523;BME280;70090;43.208;27.904;2023-08-20T05:12:05;100919.97;;;24.91;100.00
11523;BME280;70090;43.208;27.904;2023-08-20T05:14:32;100922.69;;;25.03;100.00
11523;BME280;70090;43.208;27.904;2023-08-20T05:16:59;100918.84;;;25.19;100.00
11523;BME280;70090;43.208;27.904;2023-08-20T05:19:26;100916.66;;;25.23;100.00
11523;BME280;70090;43.208;27.904;2023-08-20T05:21:53;100913.66;;;25.17;100.00
11523;BME280;70090;43.208;27.904;2023-08-20T05:24:21;100907.03;;;25.42;100.00
11523;BME280;70090;43.208;27.904;2023-08-20T05:27:05;100908.13;;;25.71;98.60
11523;BME280;70090;43.208;27.904;2023-08-20T05:29:32;100901.28;;;25.90;96.07
11523;BME280;70090;43.208;27.904;2023-08-20T05:31:59;100912.38;;;26.02;96.35
11523;BME280;70090;43.208;27.904;2023-08-20T05:34:26;100902.84;;;26.09;95.88
11523;BME280;70090;43.208;27.904;2023-08-20T05:36:53;100908.28;;;26.30;90.78
11523;BME280;70090;43.208;27.904;2023-08-20T05:39:19;100902.13;;;26.50;89.71
11523;BME280;70090;43.208;27.904;2023-08-20T05:41:46;100901.63;;;26.60;88.88
11523;BME280;70090;43.208;27.904;2023-08-20T05:44:14;100904.41;;;26.78;87.63
11523;BME280;70090;43.208;27.904;2023-08-20T05:46:42;100885.56;;;26.75;86.78
11523;BME280;70090;43.208;27.904;2023-08-20T05:49:09;100894.69;;;27.03;87.64
11523;BME280;70090;43.208;27.904;2023-08-20T05:51:36;100892.28;;;27.19;86.39
11523;BME280;70090;43.208;27.904;2023-08-20T05:54:03;100899.38;;;27.38;84.25
11523;BME280;70090;43.208;27.904;2023-08-20T05:56:30;100901.41;;;27.61;83.83
11523;BME280;70090;43.208;27.904;2023-08-20T05:58:56;100908.63;;;27.62;83.46
11523;BME280;70090;43.208;27.904;2023-08-20T06:01:25;100893.50;;;27.74;81.32
11523;BME280;70090;43.208;27.904;2023-08-20T06:03:51;100894.09;;;27.78;80.80
11523;BME280;70090;43.208;27.904;2023-08-20T06:06:18;100899.28;;;27.94;80.31
11523;BME280;70090;43.208;27.904;2023-08-20T06:08:45;100895.91;;;28.05;78.70
11523;BME280;70090;43.208;27.904;2023-08-20T06:11:12;100898.53;;;28.08;78.39
11523;BME280;70090;43.208;27.904;2023-08-20T06:13:39;100901.94;;;28.12;77.41
11523;BME280;70090;43.208;27.904;2023-08-20T06:16:06;100899.34;;;28.38;76.21
11523;BME280;70090;43.208;27.904;2023-08-20T06:18:35;100902.56;;;28.45;77.41
11523;BME280;70090;43.208;27.904;2023-08-20T06:21:02;100893.88;;;28.49;76.22
11523;BME280;70090;43.208;27.904;2023-08-20T06:23:29;100903.56;;;28.57;76.27
11523;BME280;70090;43.208;27.904;2023-08-20T06:25:56;100894.88;;;28.60;76.26
11523;BME280;70090;43.208;27.904;2023-08-20T06:28:23;100897.88;;;28.71;74.40
11523;BME280;70090;43.208;27.904;2023-08-20T06:30:49;100903.75;;;28.67;74.46
11523;BME280;70090;43.208;27.904;2023-08-20T06:33:16;100886.56;;;28.71;74.01
11523;BME280;70090;43.208;27.904;2023-08-20T06:35:44;100899.41;;;28.86;72.59
11523;BME280;70090;43.208;27.904;2023-08-20T06:38:11;100891.03;;;28.92;74.08
11523;BME280;70090;43.208;27.904;2023-08-20T06:40:38;100893.91;;;29.12;70.74
11523;BME280;70090;43.208;27.904;2023-08-20T06:43:05;100895.78;;;29.35;68.09
11523;BME280;70090;43.208;27.904;2023-08-20T06:45:32;100886.84;;;29.62;64.22
11523;BME280;70090;43.208;27.904;2023-08-20T06:47:58;100884.56;;;29.86;62.28
11523;BME280;70090;43.208;27.904;2023-08-20T06:50:25;100878.03;;;30.00;61.04
11523;BME280;70090;43.208;27.904;2023-08-20T06:52:53;100879.84;;;30.23;60.69
11523;BME280;70090;43.208;27.904;2023-08-20T06:55:20;100874.09;;;30.43;59.13
11523;BME280;70090;43.208;27.904;2023-08-20T06:57:47;100874.78;;;30.63;58.25
11523;BME280;70090;43.208;27.904;2023-08-20T07:00:14;100873.69;;;30.92;57.71
11523;BME280;70090;43.208;27.904;2023-08-20T07:02:41;100873.13;;;31.19;55.59
11523;BME280;70090;43.208;27.904;2023-08-20T07:05:08;100879.66;;;31.30;53.33
11523;BME280;70090;43.208;27.904;2023-08-20T07:07:35;100871.44;;;31.38;54.24
11523;BME280;70090;43.208;27.904;2023-08-20T07:10:05;100873.75;;;31.45;54.83
11523;BME280;70090;43.208;27.904;2023-08-20T07:12:31;100868.41;;;31.58;55.25
11523;BME280;70090;43.208;27.904;2023-08-20T07:14:58;100860.25;;;31.81;52.03
11523;BME280;70090;43.208;27.904;2023-08-20T07:17:25;100858.97;;;31.99;50.94
11523;BME280;70090;43.208;27.904;2023-08-20T07:19:52;100865.97;;;32.03;50.04
11523;BME280;70090;43.208;27.904;2023-08-20T07:22:19;100861.59;;;32.13;50.03
11523;BME280;70090;43.208;27.904;2023-08-20T07:24:45;100852.59;;;32.26;49.17
11523;BME280;70090;43.208;27.904;2023-08-20T07:27:14;100864.22;;;32.22;49.00
11523;BME280;70090;43.208;27.904;2023-08-20T07:29:41;100849.47;;;32.24;48.37
11523;BME280;70090;43.208;27.904;2023-08-20T07:32:08;100858.00;;;32.29;47.63
11523;BME280;70090;43.208;27.904;2023-08-20T07:34:35;100859.56;;;32.47;47.58
11523;BME280;70090;43.208;27.904;2023-08-20T07:37:02;100849.44;;;32.62;47.20
11523;BME280;70090;43.208;27.904;2023-08-20T07:39:30;100843.78;;;32.73;47.09
11523;BME280;70090;43.208;27.904;2023-08-20T07:41:57;100843.00;;;32.78;46.64
11523;BME280;70090;43.208;27.904;2023-08-20T07:44:25;100844.78;;;32.92;46.52
11523;BME280;70090;43.208;27.904;2023-08-20T07:46:53;100851.28;;;32.93;46.25
11523;BME280;70090;43.208;27.904;2023-08-20T07:49:20;100848.91;;;33.02;46.33
11523;BME280;70090;43.208;27.904;2023-08-20T07:51:47;100849.13;;;33.10;46.06
11523;BME280;70090;43.208;27.904;2023-08-20T07:54:14;100841.63;;;33.12;45.70
11523;BME280;70090;43.208;27.904;2023-08-20T07:56:40;100838.00;;;33.12;45.20
11523;BME280;70090;43.208;27.904;2023-08-20T07:59:07;100832.00;;;33.15;45.37
11523;BME280;70090;43.208;27.904;2023-08-20T08:01:35;100835.91;;;33.23;45.28
11523;BME280;70090;43.208;27.904;2023-08-20T08:04:02;100830.75;;;33.22;45.62
11523;BME280;70090;43.208;27.904;2023-08-20T08:06:29;100836.16;;;33.25;45.77
11523;BME280;70090;43.208;27.904;2023-08-20T08:08:56;100840.25;;;33.35;45.93
11523;BME280;70090;43.208;27.904;2023-08-20T08:11:23;100839.47;;;33.40;45.73
11523;BME280;70090;43.208;27.904;2023-08-20T08:13:51;100826.47;;;33.50;46.02
11523;BME280;70090;43.208;27.904;2023-08-20T08:16:18;100842.78;;;33.55;45.53
11523;BME280;70090;43.208;27.904;2023-08-20T08:18:46;100833.72;;;33.51;45.44
11523;BME280;70090;43.208;27.904;2023-08-20T08:21:13;100832.22;;;33.39;45.29
11523;BME280;70090;43.208;27.904;2023-08-20T08:23:39;100833.50;;;33.44;45.98
11523;BME280;70090;43.208;27.904;2023-08-20T08:26:06;100838.59;;;33.62;45.92
11523;BME280;70090;43.208;27.904;2023-08-20T08:28:33;100831.03;;;33.75;45.75
11523;BME280;70090;43.208;27.904;2023-08-20T08:31:00;100821.16;;;33.76;44.64
11523;BME280;70090;43.208;27.904;2023-08-20T08:33:27;100832.97;;;33.97;44.64
11523;BME280;70090;43.208;27.904;2023-08-20T08:35:55;100837.66;;;33.94;44.83
11523;BME280;70090;43.208;27.904;2023-08-20T08:38:22;100833.19;;;34.04;44.42
11523;BME280;70090;43.208;27.904;2023-08-20T08:40:49;100828.63;;;34.25;44.37
11523;BME280;70090;43.208;27.904;2023-08-20T08:43:16;100829.59;;;34.33;43.44
11523;BME280;70090;43.208;27.904;2023-08-20T08:45:46;100823.75;;;34.50;42.83
11523;BME280;70090;43.208;27.904;2023-08-20T08:48:14;100831.63;;;34.67;42.21
11523;BME280;70090;43.208;27.904;2023-08-20T08:50:41;100822.66;;;34.82;41.15
11523;BME280;70090;43.208;27.904;2023-08-20T08:53:10;100815.94;;;34.79;40.60
11523;BME280;70090;43.208;27.904;2023-08-20T08:55:37;100819.88;;;34.76;40.40
11523;BME280;70090;43.208;27.904;2023-08-20T08:58:04;100823.88;;;34.92;40.76
11523;BME280;70090;43.208;27.904;2023-08-20T09:00:31;100817.66;;;35.12;40.59
11523;BME280;70090;43.208;27.904;2023-08-20T09:02:58;100825.06;;;35.26;40.06
11523;BME280;70090;43.208;27.904;2023-08-20T09:05:25;100825.41;;;35.41;40.10
11523;BME280;70090;43.208;27.904;2023-08-20T09:07:55;100819.13;;;35.42;37.90
11523;BME280;70090;43.208;27.904;2023-08-20T09:10:25;100816.25;;;35.61;37.71
11523;BME280;70090;43.208;27.904;2023-08-20T09:12:54;100816.91;;;35.91;37.19
11523;BME280;70090;43.208;27.904;2023-08-20T09:15:21;100812.66;;;36.16;36.86
11523;BME280;70090;43.208;27.904;2023-08-20T09:17:48;100814.41;;;36.19;36.11
11523;BME280;70090;43.208;27.904;2023-08-20T09:20:14;100817.69;;;35.91;36.38
11523;BME280;70090;43.208;27.904;2023-08-20T09:22:48;100819.59;;;36.02;35.94
11523;BME280;70090;43.208;27.904;2023-08-20T09:25:16;100809.31;;;36.12;35.90
11523;BME280;70090;43.208;27.904;2023-08-20T09:27:44;100823.66;;;36.25;35.63
11523;BME280;70090;43.208;27.904;2023-08-20T09:30:18;100812.28;;;36.38;34.81
11523;BME280;70090;43.208;27.904;2023-08-20T09:32:46;100815.31;;;36.27;35.14
11523;BME280;70090;43.208;27.904;2023-08-20T09:35:28;100815.47;;;36.34;43.97
11523;BME280;70090;43.208;27.904;2023-08-20T09:37:58;100812.03;;;36.36;47.49
11523;BME280;70090;43.208;27.904;2023-08-20T09:40:26;100806.72;;;36.27;49.44
11523;BME280;70090;43.208;27.904;2023-08-20T09:42:56;100808.69;;;36.19;49.35
11523;BME280;70090;43.208;27.904;2023-08-20T09:45:24;100820.50;;;36.10;48.49
11523;BME280;70090;43.208;27.904;2023-08-20T09:47:54;100801.25;;;36.10;40.02
11523;BME280;70090;43.208;27.904;2023-08-20T09:50:22;100808.06;;;36.26;38.75
11523;BME280;70090;43.208;27.904;2023-08-20T09:52:56;100809.63;;;36.40;37.20
11523;BME280;70090;43.208;27.904;2023-08-20T09:55:29;100815.06;;;36.56;36.84
11523;BME280;70090;43.208;27.904;2023-08-20T09:57:58;100809.81;;;36.60;36.92
11523;BME280;70090;43.208;27.904;2023-08-20T10:00:25;100808.63;;;36.82;41.05
11523;BME280;70090;43.208;27.904;2023-08-20T10:02:55;100797.81;;;36.75;43.05
11523;BME280;70090;43.208;27.904;2023-08-20T10:05:23;100790.59;;;36.55;44.30
11523;BME280;70090;43.208;27.904;2023-08-20T10:07:50;100813.91;;;36.33;42.92
11523;BME280;70090;43.208;27.904;2023-08-20T10:10:17;100804.63;;;36.27;44.47
11523;BME280;70090;43.208;27.904;2023-08-20T10:12:45;100820.41;;;36.34;46.97
11523;BME280;70090;43.208;27.904;2023-08-20T10:15:15;100800.53;;;36.23;48.75
11523;BME280;70090;43.208;27.904;2023-08-20T10:17:44;100811.91;;;36.28;46.70
11523;BME280;70090;43.208;27.904;2023-08-20T10:20:13;100814.22;;;36.30;43.50
11523;BME280;70090;43.208;27.904;2023-08-20T10:23:00;100806.25;;;36.23;46.30
11523;BME280;70090;43.208;27.904;2023-08-20T10:25:27;100805.13;;;36.13;47.97
11523;BME280;70090;43.208;27.904;2023-08-20T10:27:54;100814.72;;;36.15;47.94
11523;BME280;70090;43.208;27.904;2023-08-20T10:30:25;100812.53;;;36.03;49.09
11523;BME280;70090;43.208;27.904;2023-08-20T10:32:53;100799.72;;;35.91;47.55
11523;BME280;70090;43.208;27.904;2023-08-20T10:35:23;100812.72;;;35.73;46.33
11523;BME280;70090;43.208;27.904;2023-08-20T10:38:04;100792.44;;;35.53;49.24
11523;BME280;70090;43.208;27.904;2023-08-20T10:40:56;100814.41;;;35.45;43.62
11523;BME280;70090;43.208;27.904;2023-08-20T10:43:26;100809.34;;;35.75;44.11
11523;BME280;70090;43.208;27.904;2023-08-20T10:46:16;100811.00;;;36.02;45.51
11523;BME280;70090;43.208;27.904;2023-08-20T10:48:47;100813.13;;;36.33;43.30
11523;BME280;70090;43.208;27.904;2023-08-20T10:51:15;100805.19;;;36.26;43.03
11523;BME280;70090;43.208;27.904;2023-08-20T10:53:43;100800.97;;;35.77;41.55
11523;BME280;70090;43.208;27.904;2023-08-20T10:56:15;100809.09;;;35.91;39.72
11523;BME280;70090;43.208;27.904;2023-08-20T10:58:44;100804.03;;;36.16;38.74
11523;BME280;70090;43.208;27.904;2023-08-20T11:01:20;100803.19;;;36.34;37.10
11523;BME280;70090;43.208;27.904;2023-08-20T11:03:47;100801.94;;;36.48;37.30
11523;BME280;70090;43.208;27.904;2023-08-20T11:06:15;100807.00;;;36.55;36.00
11523;BME280;70090;43.208;27.904;2023-08-20T11:08:42;100800.00;;;36.69;37.30
11523;BME280;70090;43.208;27.904;2023-08-20T11:11:09;100802.19;;;36.63;39.01
11523;BME280;70090;43.208;27.904;2023-08-20T11:13:36;100807.00;;;36.55;40.25
11523;BME280;70090;43.208;27.904;2023-08-20T11:16:04;100811.91;;;36.28;42.25
11523;BME280;70090;43.208;27.904;2023-08-20T11:18:33;100810.84;;;36.13;43.89
11523;BME280;70090;43.208;27.904;2023-08-20T11:21:00;100804.91;;;35.92;43.77
11523;BME280;70090;43.208;27.904;2023-08-20T11:23:28;100808.69;;;35.82;44.65
11523;BME280;70090;43.208;27.904;2023-08-20T11:25:55;100807.78;;;35.74;45.06
11523;BME280;70090;43.208;27.904;2023-08-20T11:28:22;100803.53;;;35.80;45.19
11523;BME280;70090;43.208;27.904;2023-08-20T11:30:51;100801.91;;;35.85;44.55
11523;BME280;70090;43.208;27.904;2023-08-20T11:33:18;100802.50;;;35.96;43.91
11523;BME280;70090;43.208;27.904;2023-08-20T11:35:46;100800.34;;;35.84;44.26
11523;BME280;70090;43.208;27.904;2023-08-20T11:38:13;100810.19;;;35.70;44.01
11523;BME280;70090;43.208;27.904;2023-08-20T11:40:40;100795.31;;;35.53;44.35
11523;BME280;70090;43.208;27.904;2023-08-20T11:43:08;100810.06;;;35.57;44.21
11523;BME280;70090;43.208;27.904;2023-08-20T11:45:44;100798.25;;;35.84;43.50
11523;BME280;70090;43.208;27.904;2023-08-20T11:48:11;100802.97;;;36.00;41.40
11523;BME280;70090;43.208;27.904;2023-08-20T11:50:38;100793.59;;;36.00;40.84
11523;BME280;70090;43.208;27.904;2023-08-20T11:53:08;100795.91;;;36.01;40.39
11523;BME280;70090;43.208;27.904;2023-08-20T11:55:34;100790.41;;;36.03;39.92
11523;BME280;70090;43.208;27.904;2023-08-20T11:58:01;100784.22;;;36.18;39.51
11523;BME280;70090;43.208;27.904;2023-08-20T12:00:32;100784.25;;;36.31;39.53
11523;BME280;70090;43.208;27.904;2023-08-20T12:02:59;100784.72;;;36.48;39.33
11523;BME280;70090;43.208;27.904;2023-08-20T12:05:26;100792.38;;;36.71;38.54
11523;BME280;70090;43.208;27.904;2023-08-20T12:07:57;100786.44;;;36.82;37.27
11523;BME280;70090;43.208;27.904;2023-08-20T12:10:27;100782.81;;;36.82;37.76
11523;BME280;70090;43.208;27.904;2023-08-20T12:12:55;100786.22;;;36.93;37.92
11523;BME280;70090;43.208;27.904;2023-08-20T12:15:23;100776.22;;;37.13;37.83
11523;BME280;70090;43.208;27.904;2023-08-20T12:17:57;100782.16;;;37.15;37.86
11523;BME280;70090;43.208;27.904;2023-08-20T12:20:27;100785.34;;;37.24;36.13
11523;BME280;70090;43.208;27.904;2023-08-20T12:22:57;100781.25;;;37.20;36.26
11523;BME280;70090;43.208;27.904;2023-08-20T12:25:26;100770.47;;;37.13;37.55
11523;BME280;70090;43.208;27.904;2023-08-20T12:27:53;100780.03;;;37.02;38.43
11523;BME280;70090;43.208;27.904;2023-08-20T12:30:19;100781.25;;;36.94;38.56
11523;BME280;70090;43.208;27.904;2023-08-20T12:32:46;100777.28;;;36.84;39.22
11523;BME280;70090;43.208;27.904;2023-08-20T12:35:13;100777.19;;;36.76;39.69
11523;BME280;70090;43.208;27.904;2023-08-20T12:37:40;100779.84;;;36.30;40.74
11523;BME280;70090;43.208;27.904;2023-08-20T12:40:08;100784.00;;;36.16;42.12